sensor_id;sensor_type;location;lat;lon;timestamp;P1;durP1;ratioP1;P2;durP2;ratioP2
28509;SDS011;15723;55.684;37.928;2022-12-20T00:02:03;15.43;;;9.57;;
28509;SDS011;15723;55.684;37.928;2022-12-20T00:04:29;14.55;;;8.93;;
28509;SDS011;15723;55.684;37.928;2022-12-20T00:06:55;14.30;;;8.60;;
28509;SDS011;15723;55.684;37.928;2022-12-20T00:09:21;16.40;;;8.73;;
28509;SDS011;15723;55.684;37.928;2022-12-20T00:11:50;17.27;;;9.50;;
28509;SDS011;15723;55.684;37.928;2022-12-20T00:14:16;17.17;;;9.27;;
28509;SDS011;15723;55.684;37.928;2022-12-20T00:16:42;18.27;;;9.38;;
28509;SDS011;15723;55.684;37.928;2022-12-20T00:19:09;14.73;;;9.35;;
28509;SDS011;15723;55.684;37.928;2022-12-20T00:21:36;15.60;;;8.85;;
28509;SDS011;15723;55.684;37.928;2022-12-20T00:24:03;13.75;;;8.57;;
28509;SDS011;15723;55.684;37.928;2022-12-20T00:26:31;14.48;;;8.80;;
28509;SDS011;15723;55.684;37.928;2022-12-20T00:28:59;16.80;;;7.82;;
28509;SDS011;15723;55.684;37.928;2022-12-20T00:31:27;17.60;;;8.60;;
28509;SDS011;15723;55.684;37.928;2022-12-20T00:33:56;15.63;;;8.27;;
28509;SDS011;15723;55.684;37.928;2022-12-20T00:36:25;14.73;;;8.88;;
28509;SDS011;15723;55.684;37.928;2022-12-20T00:38:54;18.25;;;8.73;;
28509;SDS011;15723;55.684;37.928;2022-12-20T00:41:22;17.10;;;8.90;;
28509;SDS011;15723;55.684;37.928;2022-12-20T00:43:53;12.65;;;7.68;;
28509;SDS011;15723;55.684;37.928;2022-12-20T00:46:22;15.73;;;8.75;;
28509;SDS011;15723;55.684;37.928;2022-12-20T00:48:51;15.23;;;8.95;;
28509;SDS011;15723;55.684;37.928;2022-12-20T00:51:19;14.82;;;8.65;;
28509;SDS011;15723;55.684;37.928;2022-12-20T00:53:50;14.60;;;8.02;;
28509;SDS011;15723;55.684;37.928;2022-12-20T00:56:16;15.10;;;8.23;;
28509;SDS011;15723;55.684;37.928;2022-12-20T00:58:43;13.40;;;7.78;;
28509;SDS011;15723;55.684;37.928;2022-12-20T01:01:14;13.63;;;7.90;;
28509;SDS011;15723;55.684;37.928;2022-12-20T01:03:47;13.70;;;7.18;;
28509;SDS011;15723;55.684;37.928;2022-12-20T01:06:14;12.20;;;6.43;;
28509;SDS011;15723;55.684;37.928;2022-12-20T01:08:41;13.15;;;7.80;;
28509;SDS011;15723;55.684;37.928;2022-12-20T01:13:34;11.90;;;6.65;;
28509;SDS011;15723;55.684;37.928;2022-12-20T01:16:05;10.43;;;6.70;;
28509;SDS011;15723;55.684;37.928;2022-12-20T01:18:32;13.07;;;7.20;;
28509;SDS011;15723;55.684;37.928;2022-12-20T01:20:59;12.10;;;7.07;;
28509;SDS011;15723;55.684;37.928;2022-12-20T01:23:30;14.20;;;7.32;;
28509;SDS011;15723;55.684;37.928;2022-12-20T01:25:57;13.45;;;6.43;;
28509;SDS011;15723;55.684;37.928;2022-12-20T01:28:24;14.95;;;7.70;;
28509;SDS011;15723;55.684;37.928;2022-12-20T01:30:51;14.98;;;7.47;;
28509;SDS011;15723;55.684;37.928;2022-12-20T01:33:17;14.07;;;6.97;;
28509;SDS011;15723;55.684;37.928;2022-12-20T01:35:53;11.77;;;6.65;;
28509;SDS011;15723;55.684;37.928;2022-12-20T01:38:24;13.73;;;7.10;;
28509;SDS011;15723;55.684;37.928;2022-12-20T01:40:50;11.65;;;6.60;;
28509;SDS011;15723;55.684;37.928;2022-12-20T01:43:17;13.55;;;7.20;;
28509;SDS011;15723;55.684;37.928;2022-12-20T01:45:45;11.45;;;6.22;;
28509;SDS011;15723;55.684;37.928;2022-12-20T01:48:12;11.63;;;6.90;;
28509;SDS011;15723;55.684;37.928;2022-12-20T01:50:41;13.27;;;7.35;;
28509;SDS011;15723;55.684;37.928;2022-12-20T01:53:08;13.90;;;7.25;;
28509;SDS011;15723;55.684;37.928;2022-12-20T01:55:35;13.70;;;7.05;;
28509;SDS011;15723;55.684;37.928;2022-12-20T01:58:04;13.40;;;7.53;;
28509;SDS011;15723;55.684;37.928;2022-12-20T02:00:33;13.50;;;7.70;;
28509;SDS011;15723;55.684;37.928;2022-12-20T02:03:08;13.25;;;7.15;;
28509;SDS011;15723;55.684;37.928;2022-12-20T02:05:38;11.45;;;7.40;;
28509;SDS011;15723;55.684;37.928;2022-12-20T02:08:07;16.30;;;7.40;;
28509;SDS011;15723;55.684;37.928;2022-12-20T02:10:51;14.73;;;6.97;;
28509;SDS011;15723;55.684;37.928;2022-12-20T02:13:55;12.15;;;6.82;;
28509;SDS011;15723;55.684;37.928;2022-12-20T02:16:56;14.65;;;7.10;;
28509;SDS011;15723;55.684;37.928;2022-12-20T02:25:17;9.80;;;6.32;;
28509;SDS011;15723;55.684;37.928;2022-12-20T02:30:52;12.02;;;7.25;;
28509;SDS011;15723;55.684;37.928;2022-12-20T02:33:21;12.00;;;6.75;;
28509;SDS011;15723;55.684;37.928;2022-12-20T02:35:50;11.98;;;6.80;;
28509;SDS011;15723;55.684;37.928;2022-12-20T02:38:27;13.25;;;6.88;;
28509;SDS011;15723;55.684;37.928;2022-12-20T02:41:05;11.93;;;6.78;;
28509;SDS011;15723;55.684;37.928;2022-12-20T02:43:36;17.92;;;6.78;;
28509;SDS011;15723;55.684;37.928;2022-12-20T02:46:24;14.77;;;6.53;;
28509;SDS011;15723;55.684;37.928;2022-12-20T02:48:53;13.98;;;7.32;;
28509;SDS011;15723;55.684;37.928;2022-12-20T02:51:25;13.35;;;6.82;;
28509;SDS011;15723;55.684;37.928;2022-12-20T02:53:55;15.23;;;6.90;;
28509;SDS011;15723;55.684;37.928;2022-12-20T02:56:29;15.05;;;7.40;;
28509;SDS011;15723;55.684;37.928;2022-12-20T02:59:08;14.63;;;7.65;;
28509;SDS011;15723;55.684;37.928;2022-12-20T03:01:41;16.77;;;8.73;;
28509;SDS011;15723;55.684;37.928;2022-12-20T03:04:22;13.93;;;7.55;;
28509;SDS011;15723;55.684;37.928;2022-12-20T03:07:10;14.30;;;6.82;;
28509;SDS011;15723;55.684;37.928;2022-12-20T03:09:39;17.88;;;7.85;;
28509;SDS011;15723;55.684;37.928;2022-12-20T03:12:09;12.57;;;7.53;;
28509;SDS011;15723;55.684;37.928;2022-12-20T03:14:38;14.45;;;7.30;;
28509;SDS011;15723;55.684;37.928;2022-12-20T03:17:07;17.38;;;7.28;;
28509;SDS011;15723;55.684;37.928;2022-12-20T03:19:37;14.15;;;7.63;;
28509;SDS011;15723;55.684;37.928;2022-12-20T03:22:04;14.95;;;7.85;;
28509;SDS011;15723;55.684;37.928;2022-12-20T03:24:31;15.15;;;7.57;;
28509;SDS011;15723;55.684;37.928;2022-12-20T03:26:58;14.75;;;8.15;;
28509;SDS011;15723;55.684;37.928;2022-12-20T03:29:25;13.85;;;7.30;;
28509;SDS011;15723;55.684;37.928;2022-12-20T03:31:51;15.02;;;7.50;;
28509;SDS011;15723;55.684;37.928;2022-12-20T03:34:18;13.82;;;7.45;;
28509;SDS011;15723;55.684;37.928;2022-12-20T03:36:44;17.60;;;8.27;;
28509;SDS011;15723;55.684;37.928;2022-12-20T03:39:10;17.10;;;8.73;;
28509;SDS011;15723;55.684;37.928;2022-12-20T03:41:39;18.17;;;9.35;;
28509;SDS011;15723;55.684;37.928;2022-12-20T03:44:08;17.77;;;9.02;;
28509;SDS011;15723;55.684;37.928;2022-12-20T03:46:35;22.48;;;10.05;;
28509;SDS011;15723;55.684;37.928;2022-12-20T03:49:02;21.40;;;10.75;;
28509;SDS011;15723;55.684;37.928;2022-12-20T03:51:29;21.02;;;10.30;;
28509;SDS011;15723;55.684;37.928;2022-12-20T03:53:56;18.48;;;10.00;;
28509;SDS011;15723;55.684;37.928;2022-12-20T03:56:33;27.63;;;12.82;;
28509;SDS011;15723;55.684;37.928;2022-12-20T03:58:59;24.90;;;13.13;;
28509;SDS011;15723;55.684;37.928;2022-12-20T04:01:26;26.02;;;11.70;;
28509;SDS011;15723;55.684;37.928;2022-12-20T04:03:54;30.30;;;13.02;;
28509;SDS011;15723;55.684;37.928;2022-12-20T04:06:21;29.00;;;14.02;;
28509;SDS011;15723;55.684;37.928;2022-12-20T04:08:49;27.40;;;12.55;;
28509;SDS011;15723;55.684;37.928;2022-12-20T04:11:23;30.88;;;13.20;;
28509;SDS011;15723;55.684;37.928;2022-12-20T04:13:59;32.28;;;13.45;;
28509;SDS011;15723;55.684;37.928;2022-12-20T04:16:26;30.48;;;13.98;;
28509;SDS011;15723;55.684;37.928;2022-12-20T04:18:54;28.58;;;13.38;;
28509;SDS011;15723;55.684;37.928;2022-12-20T04:21:22;30.02;;;13.52;;
28509;SDS011;15723;55.684;37.928;2022-12-20T04:23:52;33.80;;;15.48;;
28509;SDS011;15723;55.684;37.928;2022-12-20T04:26:19;29.25;;;13.98;;
28509;SDS011;15723;55.684;37.928;2022-12-20T04:28:46;32.90;;;15.57;;
28509;SDS011;15723;55.684;37.928;2022-12-20T04:31:12;33.65;;;15.32;;
28509;SDS011;15723;55.684;37.928;2022-12-20T04:33:39;30.65;;;13.77;;
28509;SDS011;15723;55.684;37.928;2022-12-20T04:36:06;35.83;;;15.57;;
28509;SDS011;15723;55.684;37.928;2022-12-20T04:38:33;32.08;;;16.45;;
28509;SDS011;15723;55.684;37.928;2022-12-20T04:41:00;35.35;;;15.98;;
28509;SDS011;15723;55.684;37.928;2022-12-20T04:43:35;33.22;;;15.07;;
28509;SDS011;15723;55.684;37.928;2022-12-20T04:46:03;35.75;;;15.98;;
28509;SDS011;15723;55.684;37.928;2022-12-20T04:48:29;31.77;;;15.60;;
28509;SDS011;15723;55.684;37.928;2022-12-20T04:50:55;35.90;;;17.05;;
28509;SDS011;15723;55.684;37.928;2022-12-20T04:53:23;34.13;;;15.95;;
28509;SDS011;15723;55.684;37.928;2022-12-20T04:56:12;32.25;;;15.52;;
28509;SDS011;15723;55.684;37.928;2022-12-20T04:58:49;28.65;;;15.20;;
28509;SDS011;15723;55.684;37.928;2022-12-20T05:01:17;28.80;;;13.45;;
28509;SDS011;15723;55.684;37.928;2022-12-20T05:03:49;29.55;;;14.05;;
28509;SDS011;15723;55.684;37.928;2022-12-20T05:06:16;29.92;;;13.48;;
28509;SDS011;15723;55.684;37.928;2022-12-20T05:08:42;25.33;;;12.73;;
28509;SDS011;15723;55.684;37.928;2022-12-20T05:11:09;26.05;;;13.77;;
28509;SDS011;15723;55.684;37.928;2022-12-20T05:13:35;30.88;;;15.43;;
28509;SDS011;15723;55.684;37.928;2022-12-20T05:16:02;29.05;;;13.40;;
28509;SDS011;15723;55.684;37.928;2022-12-20T05:18:32;26.13;;;13.25;;
28509;SDS011;15723;55.684;37.928;2022-12-20T05:21:02;27.98;;;11.05;;
28509;SDS011;15723;55.684;37.928;2022-12-20T05:23:50;24.77;;;11.65;;
28509;SDS011;15723;55.684;37.928;2022-12-20T05:26:51;26.65;;;13.15;;
28509;SDS011;15723;55.684;37.928;2022-12-20T05:29:18;27.58;;;12.43;;
28509;SDS011;15723;55.684;37.928;2022-12-20T05:31:45;22.58;;;11.82;;
28509;SDS011;15723;55.684;37.928;2022-12-20T05:34:12;27.45;;;12.25;;
28509;SDS011;15723;55.684;37.928;2022-12-20T05:36:40;26.00;;;11.73;;
28509;SDS011;15723;55.684;37.928;2022-12-20T05:39:07;24.75;;;11.07;;
28509;SDS011;15723;55.684;37.928;2022-12-20T05:41:39;22.25;;;11.48;;
28509;SDS011;15723;55.684;37.928;2022-12-20T05:44:06;26.20;;;12.98;;
28509;SDS011;15723;55.684;37.928;2022-12-20T05:46:35;28.65;;;13.20;;
28509;SDS011;15723;55.684;37.928;2022-12-20T05:49:07;26.00;;;12.40;;
28509;SDS011;15723;55.684;37.928;2022-12-20T05:51:33;24.63;;;12.25;;
28509;SDS011;15723;55.684;37.928;2022-12-20T05:54:07;29.23;;;13.43;;
28509;SDS011;15723;55.684;37.928;2022-12-20T05:56:44;27.42;;;12.45;;
28509;SDS011;15723;55.684;37.928;2022-12-20T05:59:11;24.90;;;12.55;;
28509;SDS011;15723;55.684;37.928;2022-12-20T06:01:38;28.48;;;14.38;;
28509;SDS011;15723;55.684;37.928;2022-12-20T06:04:04;26.95;;;11.30;;
28509;SDS011;15723;55.684;37.928;2022-12-20T06:06:31;32.50;;;16.00;;
28509;SDS011;15723;55.684;37.928;2022-12-20T06:08:58;27.52;;;13.23;;
28509;SDS011;15723;55.684;37.928;2022-12-20T06:11:37;32.55;;;14.95;;
28509;SDS011;15723;55.684;37.928;2022-12-20T06:14:07;33.58;;;16.40;;
28509;SDS011;15723;55.684;37.928;2022-12-20T06:16:37;38.90;;;16.52;;
28509;SDS011;15723;55.684;37.928;2022-12-20T06:19:05;32.55;;;16.17;;
28509;SDS011;15723;55.684;37.928;2022-12-20T06:21:32;39.00;;;17.42;;
28509;SDS011;15723;55.684;37.928;2022-12-20T06:23:59;35.05;;;16.80;;
28509;SDS011;15723;55.684;37.928;2022-12-20T06:26:26;34.13;;;16.65;;
28509;SDS011;15723;55.684;37.928;2022-12-20T06:28:53;33.55;;;15.35;;
28509;SDS011;15723;55.684;37.928;2022-12-20T06:31:35;30.80;;;16.73;;
28509;SDS011;15723;55.684;37.928;2022-12-20T06:34:02;35.05;;;17.27;;
28509;SDS011;15723;55.684;37.928;2022-12-20T06:36:32;30.92;;;15.25;;
28509;SDS011;15723;55.684;37.928;2022-12-20T06:38:59;29.25;;;14.13;;
28509;SDS011;15723;55.684;37.928;2022-12-20T06:41:27;29.88;;;14.80;;
28509;SDS011;15723;55.684;37.928;2022-12-20T06:43:53;28.20;;;13.48;;
28509;SDS011;15723;55.684;37.928;2022-12-20T06:46:20;29.20;;;13.02;;
28509;SDS011;15723;55.684;37.928;2022-12-20T06:48:47;23.55;;;12.68;;
28509;SDS011;15723;55.684;37.928;2022-12-20T06:51:18;24.92;;;11.70;;
28509;SDS011;15723;55.684;37.928;2022-12-20T06:53:44;26.50;;;12.73;;
28509;SDS011;15723;55.684;37.928;2022-12-20T06:56:10;22.30;;;11.10;;
28509;SDS011;15723;55.684;37.928;2022-12-20T06:58:37;23.90;;;12.13;;
28509;SDS011;15723;55.684;37.928;2022-12-20T07:01:03;19.48;;;10.48;;
28509;SDS011;15723;55.684;37.928;2022-12-20T07:03:30;20.23;;;10.18;;
28509;SDS011;15723;55.684;37.928;2022-12-20T07:05:56;21.73;;;11.00;;
28509;SDS011;15723;55.684;37.928;2022-12-20T07:08:22;20.77;;;9.77;;
28509;SDS011;15723;55.684;37.928;2022-12-20T07:10:50;21.83;;;10.40;;
28509;SDS011;15723;55.684;37.928;2022-12-20T07:13:17;15.98;;;9.38;;
28509;SDS011;15723;55.684;37.928;2022-12-20T07:15:44;17.73;;;8.25;;
28509;SDS011;15723;55.684;37.928;2022-12-20T07:18:10;18.42;;;8.73;;
28509;SDS011;15723;55.684;37.928;2022-12-20T07:20:36;17.70;;;8.50;;
28509;SDS011;15723;55.684;37.928;2022-12-20T07:23:03;15.68;;;8.38;;
28509;SDS011;15723;55.684;37.928;2022-12-20T07:25:29;17.85;;;9.38;;
28509;SDS011;15723;55.684;37.928;2022-12-20T07:27:55;15.73;;;8.00;;
28509;SDS011;15723;55.684;37.928;2022-12-20T07:30:21;16.40;;;8.77;;
28509;SDS011;15723;55.684;37.928;2022-12-20T07:32:48;20.48;;;9.15;;
28509;SDS011;15723;55.684;37.928;2022-12-20T07:35:14;19.08;;;8.98;;
28509;SDS011;15723;55.684;37.928;2022-12-20T07:37:41;13.30;;;7.43;;
28509;SDS011;15723;55.684;37.928;2022-12-20T07:40:07;17.95;;;8.75;;
28509;SDS011;15723;55.684;37.928;2022-12-20T07:42:35;14.60;;;7.57;;
28509;SDS011;15723;55.684;37.928;2022-12-20T07:45:02;17.55;;;7.50;;
28509;SDS011;15723;55.684;37.928;2022-12-20T07:47:29;16.75;;;7.80;;
28509;SDS011;15723;55.684;37.928;2022-12-20T07:49:55;17.38;;;8.80;;
28509;SDS011;15723;55.684;37.928;2022-12-20T07:52:22;16.58;;;8.55;;
28509;SDS011;15723;55.684;37.928;2022-12-20T07:54:53;14.60;;;8.65;;
28509;SDS011;15723;55.684;37.928;2022-12-20T07:57:33;12.20;;;7.47;;
28509;SDS011;15723;55.684;37.928;2022-12-20T08:00:05;16.17;;;7.57;;
28509;SDS011;15723;55.684;37.928;2022-12-20T08:02:42;11.82;;;7.05;;
28509;SDS011;15723;55.684;37.928;2022-12-20T08:05:12;11.32;;;6.60;;
28509;SDS011;15723;55.684;37.928;2022-12-20T08:07:39;10.40;;;6.28;;
28509;SDS011;15723;55.684;37.928;2022-12-20T08:10:08;12.80;;;6.10;;
28509;SDS011;15723;55.684;37.928;2022-12-20T08:12:40;10.63;;;6.00;;
28509;SDS011;15723;55.684;37.928;2022-12-20T08:15:08;12.15;;;6.97;;
28509;SDS011;15723;55.684;37.928;2022-12-20T08:17:35;11.10;;;5.95;;
28509;SDS011;15723;55.684;37.928;2022-12-20T08:20:01;13.57;;;6.85;;
28509;SDS011;15723;55.684;37.928;2022-12-20T08:22:30;11.43;;;7.65;;
28509;SDS011;15723;55.684;37.928;2022-12-20T08:24:56;14.65;;;7.40;;
28509;SDS011;15723;55.684;37.928;2022-12-20T08:27:22;11.93;;;6.90;;
28509;SDS011;15723;55.684;37.928;2022-12-20T08:29:49;14.07;;;7.75;;
28509;SDS011;15723;55.684;37.928;2022-12-20T08:32:15;14.45;;;7.15;;
28509;SDS011;15723;55.684;37.928;2022-12-20T08:34:41;11.68;;;6.82;;
28509;SDS011;15723;55.684;37.928;2022-12-20T08:37:08;11.88;;;6.47;;
28509;SDS011;15723;55.684;37.928;2022-12-20T08:39:34;14.65;;;8.32;;
28509;SDS011;15723;55.684;37.928;2022-12-20T08:42:00;14.75;;;6.95;;
28509;SDS011;15723;55.684;37.928;2022-12-20T08:44:26;15.18;;;6.70;;
28509;SDS011;15723;55.684;37.928;2022-12-20T08:46:52;13.25;;;6.65;;
28509;SDS011;15723;55.684;37.928;2022-12-20T08:49:19;13.05;;;6.60;;
28509;SDS011;15723;55.684;37.928;2022-12-20T08:51:45;13.60;;;7.07;;
28509;SDS011;15723;55.684;37.928;2022-12-20T08:54:11;14.35;;;7.22;;
28509;SDS011;15723;55.684;37.928;2022-12-20T08:56:37;12.90;;;6.97;;
28509;SDS011;15723;55.684;37.928;2022-12-20T08:59:04;15.32;;;7.70;;
28509;SDS011;15723;55.684;37.928;2022-12-20T09:01:30;11.02;;;6.22;;
28509;SDS011;15723;55.684;37.928;2022-12-20T09:03:58;13.07;;;7.03;;
28509;SDS011;15723;55.684;37.928;2022-12-20T09:06:24;11.85;;;6.10;;
28509;SDS011;15723;55.684;37.928;2022-12-20T09:08:51;11.63;;;6.13;;
28509;SDS011;15723;55.684;37.928;2022-12-20T09:11:19;13.20;;;6.63;;
28509;SDS011;15723;55.684;37.928;2022-12-20T09:13:48;12.85;;;6.50;;
28509;SDS011;15723;55.684;37.928;2022-12-20T09:16:18;11.23;;;6.13;;
28509;SDS011;15723;55.684;37.928;2022-12-20T09:18:47;12.82;;;5.93;;
28509;SDS011;15723;55.684;37.928;2022-12-20T09:21:18;14.20;;;6.32;;
28509;SDS011;15723;55.684;37.928;2022-12-20T09:23:44;9.75;;;5.63;;
28509;SDS011;15723;55.684;37.928;2022-12-20T09:26:15;11.23;;;5.90;;
28509;SDS011;15723;55.684;37.928;2022-12-20T09:28:42;14.77;;;6.72;;
28509;SDS011;15723;55.684;37.928;2022-12-20T09:31:14;11.55;;;5.85;;
28509;SDS011;15723;55.684;37.928;2022-12-20T09:33:42;14.50;;;6.85;;
28509;SDS011;15723;55.684;37.928;2022-12-20T09:36:10;11.93;;;6.32;;
28509;SDS011;15723;55.684;37.928;2022-12-20T09:38:38;11.70;;;6.95;;
28509;SDS011;15723;55.684;37.928;2022-12-20T09:41:05;12.40;;;6.68;;
28509;SDS011;15723;55.684;37.928;2022-12-20T09:43:34;13.85;;;7.25;;
28509;SDS011;15723;55.684;37.928;2022-12-20T09:46:02;13.35;;;7.03;;
28509;SDS011;15723;55.684;37.928;2022-12-20T09:48:32;11.13;;;6.78;;
28509;SDS011;15723;55.684;37.928;2022-12-20T09:54:12;10.77;;;6.32;;
28509;SDS011;15723;55.684;37.928;2022-12-20T09:59:33;11.13;;;6.43;;
28509;SDS011;15723;55.684;37.928;2022-12-20T10:02:06;15.63;;;7.13;;
28509;SDS011;15723;55.684;37.928;2022-12-20T10:04:41;10.57;;;6.25;;
28509;SDS011;15723;55.684;37.928;2022-12-20T10:07:16;13.32;;;6.63;;
28509;SDS011;15723;55.684;37.928;2022-12-20T10:12:57;11.20;;;6.80;;
28509;SDS011;15723;55.684;37.928;2022-12-20T10:15:31;11.30;;;6.22;;
28509;SDS011;15723;55.684;37.928;2022-12-20T10:23:26;11.55;;;6.40;;
28509;SDS011;15723;55.684;37.928;2022-12-20T10:25:58;12.70;;;6.28;;
28509;SDS011;15723;55.684;37.928;2022-12-20T10:28:29;12.95;;;5.88;;
28509;SDS011;15723;55.684;37.928;2022-12-20T10:31:06;10.00;;;5.38;;
28509;SDS011;15723;55.684;37.928;2022-12-20T10:33:39;10.82;;;5.82;;
28509;SDS011;15723;55.684;37.928;2022-12-20T10:39:04;9.15;;;5.03;;
28509;SDS011;15723;55.684;37.928;2022-12-20T10:44:25;8.45;;;5.32;;
28509;SDS011;15723;55.684;37.928;2022-12-20T10:46:57;12.88;;;5.32;;
28509;SDS011;15723;55.684;37.928;2022-12-20T10:49:32;11.40;;;5.53;;
28509;SDS011;15723;55.684;37.928;2022-12-20T10:54:36;11.18;;;5.70;;
28509;SDS011;15723;55.684;37.928;2022-12-20T10:59:56;13.75;;;5.55;;
28509;SDS011;15723;55.684;37.928;2022-12-20T11:02:28;10.60;;;5.50;;
28509;SDS011;15723;55.684;37.928;2022-12-20T11:05:00;10.50;;;4.80;;
28509;SDS011;15723;55.684;37.928;2022-12-20T11:07:38;10.02;;;5.55;;
28509;SDS011;15723;55.684;37.928;2022-12-20T11:10:21;12.80;;;6.03;;
28509;SDS011;15723;55.684;37.928;2022-12-20T11:15:21;10.63;;;5.22;;
28509;SDS011;15723;55.684;37.928;2022-12-20T11:18:00;10.85;;;5.47;;
28509;SDS011;15723;55.684;37.928;2022-12-20T11:28:30;10.90;;;5.93;;
28509;SDS011;15723;55.684;37.928;2022-12-20T11:31:29;10.48;;;5.85;;
28509;SDS011;15723;55.684;37.928;2022-12-20T11:37:45;14.07;;;7.22;;
28509;SDS011;15723;55.684;37.928;2022-12-20T11:47:59;13.32;;;6.35;;
28509;SDS011;15723;55.684;37.928;2022-12-20T11:50:35;12.93;;;6.55;;
28509;SDS011;15723;55.684;37.928;2022-12-20T11:53:22;14.30;;;7.28;;
28509;SDS011;15723;55.684;37.928;2022-12-20T11:58:25;13.88;;;7.05;;
28509;SDS011;15723;55.684;37.928;2022-12-20T12:01:02;15.73;;;7.13;;
28509;SDS011;15723;55.684;37.928;2022-12-20T12:03:37;15.00;;;6.07;;
28509;SDS011;15723;55.684;37.928;2022-12-20T12:06:08;14.15;;;6.28;;
28509;SDS011;15723;55.684;37.928;2022-12-20T12:08:47;9.65;;;5.82;;
28509;SDS011;15723;55.684;37.928;2022-12-20T12:11:19;11.82;;;5.85;;
28509;SDS011;15723;55.684;37.928;2022-12-20T12:13:49;11.73;;;6.03;;
28509;SDS011;15723;55.684;37.928;2022-12-20T12:18:59;12.98;;;6.15;;
28509;SDS011;15723;55.684;37.928;2022-12-20T12:21:27;17.80;;;6.80;;
28509;SDS011;15723;55.684;37.928;2022-12-20T12:24:18;13.43;;;6.05;;
28509;SDS011;15723;55.684;37.928;2022-12-20T12:27:10;11.75;;;4.93;;
28509;SDS011;15723;55.684;37.928;2022-12-20T12:29:47;13.13;;;5.50;;
28509;SDS011;15723;55.684;37.928;2022-12-20T12:32:56;11.95;;;6.55;;
28509;SDS011;15723;55.684;37.928;2022-12-20T12:38:03;16.27;;;6.60;;
28509;SDS011;15723;55.684;37.928;2022-12-20T12:43:43;12.25;;;6.07;;
28509;SDS011;15723;55.684;37.928;2022-12-20T12:46:28;14.30;;;5.63;;
28509;SDS011;15723;55.684;37.928;2022-12-20T12:51:50;12.27;;;6.43;;
28509;SDS011;15723;55.684;37.928;2022-12-20T12:54:26;13.95;;;6.03;;
28509;SDS011;15723;55.684;37.928;2022-12-20T12:57:01;10.52;;;5.18;;
28509;SDS011;15723;55.684;37.928;2022-12-20T13:04:51;13.95;;;5.55;;
28509;SDS011;15723;55.684;37.928;2022-12-20T13:09:58;10.10;;;5.60;;
28509;SDS011;15723;55.684;37.928;2022-12-20T13:20:34;11.68;;;5.53;;
28509;SDS011;15723;55.684;37.928;2022-12-20T13:23:22;8.75;;;4.95;;
28509;SDS011;15723;55.684;37.928;2022-12-20T13:25:48;11.57;;;5.60;;
28509;SDS011;15723;55.684;37.928;2022-12-20T13:33:48;9.35;;;5.68;;
28509;SDS011;15723;55.684;37.928;2022-12-20T13:36:29;11.32;;;5.82;;
28509;SDS011;15723;55.684;37.928;2022-12-20T13:42:18;14.13;;;5.63;;
28509;SDS011;15723;55.684;37.928;2022-12-20T13:45:08;12.15;;;6.05;;
28509;SDS011;15723;55.684;37.928;2022-12-20T13:47:41;11.80;;;6.38;;
28509;SDS011;15723;55.684;37.928;2022-12-20T13:50:46;11.25;;;5.75;;
28509;SDS011;15723;55.684;37.928;2022-12-20T13:53:05;12.60;;;5.80;;
28509;SDS011;15723;55.684;37.928;2022-12-20T13:55:40;11.38;;;5.40;;
28509;SDS011;15723;55.684;37.928;2022-12-20T13:58:15;10.57;;;5.47;;
28509;SDS011;15723;55.684;37.928;2022-12-20T14:00:44;12.68;;;5.72;;
28509;SDS011;15723;55.684;37.928;2022-12-20T14:05:47;13.60;;;6.22;;
28509;SDS011;15723;55.684;37.928;2022-12-20T14:08:22;13.98;;;6.53;;
28509;SDS011;15723;55.684;37.928;2022-12-20T14:10:53;11.25;;;6.70;;
28509;SDS011;15723;55.684;37.928;2022-12-20T14:13:26;14.20;;;6.80;;
28509;SDS011;15723;55.684;37.928;2022-12-20T14:15:53;13.77;;;7.18;;
28509;SDS011;15723;55.684;37.928;2022-12-20T14:18:22;13.43;;;6.90;;
28509;SDS011;15723;55.684;37.928;2022-12-20T14:20:50;16.25;;;6.78;;
28509;SDS011;15723;55.684;37.928;2022-12-20T14:23:21;10.52;;;5.90;;
28509;SDS011;15723;55.684;37.928;2022-12-20T14:25:58;14.35;;;7.35;;
28509;SDS011;15723;55.684;37.928;2022-12-20T14:31:00;13.05;;;7.45;;
28509;SDS011;15723;55.684;37.928;2022-12-20T14:33:29;19.23;;;7.93;;
28509;SDS011;15723;55.684;37.928;2022-12-20T14:36:07;13.95;;;6.63;;
28509;SDS011;15723;55.684;37.928;2022-12-20T14:38:44;14.63;;;6.88;;
28509;SDS011;15723;55.684;37.928;2022-12-20T14:44:11;16.33;;;8.23;;
28509;SDS011;15723;55.684;37.928;2022-12-20T14:46:48;13.55;;;6.40;;
28509;SDS011;15723;55.684;37.928;2022-12-20T14:49:21;16.23;;;6.85;;
28509;SDS011;15723;55.684;37.928;2022-12-20T14:54:46;15.38;;;7.22;;
28509;SDS011;15723;55.684;37.928;2022-12-20T15:02:39;17.02;;;7.03;;
28509;SDS011;15723;55.684;37.928;2022-12-20T15:13:39;15.43;;;8.20;;
28509;SDS011;15723;55.684;37.928;2022-12-20T15:16:14;16.17;;;7.82;;
28509;SDS011;15723;55.684;37.928;2022-12-20T15:18:49;14.75;;;6.53;;
28509;SDS011;15723;55.684;37.928;2022-12-20T15:21:27;19.83;;;7.50;;
28509;SDS011;15723;55.684;37.928;2022-12-20T15:24:03;19.45;;;7.65;;
28509;SDS011;15723;55.684;37.928;2022-12-20T15:26:34;16.85;;;7.30;;
28509;SDS011;15723;55.684;37.928;2022-12-20T15:29:01;15.85;;;8.10;;
28509;SDS011;15723;55.684;37.928;2022-12-20T15:31:30;14.18;;;8.13;;
28509;SDS011;15723;55.684;37.928;2022-12-20T15:34:00;15.63;;;8.25;;
28509;SDS011;15723;55.684;37.928;2022-12-20T15:36:35;16.90;;;8.52;;
28509;SDS011;15723;55.684;37.928;2022-12-20T15:39:02;15.75;;;7.90;;
28509;SDS011;15723;55.684;37.928;2022-12-20T15:41:30;18.15;;;8.10;;
28509;SDS011;15723;55.684;37.928;2022-12-20T15:44:05;15.82;;;8.27;;
28509;SDS011;15723;55.684;37.928;2022-12-20T15:46:32;16.13;;;8.48;;
28509;SDS011;15723;55.684;37.928;2022-12-20T15:48:58;16.48;;;8.18;;
28509;SDS011;15723;55.684;37.928;2022-12-20T15:54:06;17.83;;;8.57;;
28509;SDS011;15723;55.684;37.928;2022-12-20T15:56:39;17.85;;;8.57;;
28509;SDS011;15723;55.684;37.928;2022-12-20T15:59:05;18.88;;;8.50;;
28509;SDS011;15723;55.684;37.928;2022-12-20T16:01:35;16.67;;;8.40;;
28509;SDS011;15723;55.684;37.928;2022-12-20T16:04:03;19.20;;;8.10;;
28509;SDS011;15723;55.684;37.928;2022-12-20T16:06:30;16.85;;;8.68;;
28509;SDS011;15723;55.684;37.928;2022-12-20T16:08:57;17.55;;;9.35;;
28509;SDS011;15723;55.684;37.928;2022-12-20T16:11:27;16.73;;;8.35;;
28509;SDS011;15723;55.684;37.928;2022-12-20T16:13:55;16.85;;;8.73;;
28509;SDS011;15723;55.684;37.928;2022-12-20T16:16:24;17.52;;;9.55;;
28509;SDS011;15723;55.684;37.928;2022-12-20T16:18:52;22.02;;;9.90;;
28509;SDS011;15723;55.684;37.928;2022-12-20T16:21:22;23.02;;;8.55;;
28509;SDS011;15723;55.684;37.928;2022-12-20T16:23:50;17.65;;;8.65;;
28509;SDS011;15723;55.684;37.928;2022-12-20T16:26:18;22.77;;;9.02;;
28509;SDS011;15723;55.684;37.928;2022-12-20T16:28:47;16.13;;;8.18;;
28509;SDS011;15723;55.684;37.928;2022-12-20T16:31:26;18.20;;;9.27;;
28509;SDS011;15723;55.684;37.928;2022-12-20T16:33:58;18.63;;;8.65;;
28509;SDS011;15723;55.684;37.928;2022-12-20T16:36:27;20.77;;;9.93;;
28509;SDS011;15723;55.684;37.928;2022-12-20T16:38:54;17.98;;;8.43;;
28509;SDS011;15723;55.684;37.928;2022-12-20T16:41:25;18.00;;;9.25;;
28509;SDS011;15723;55.684;37.928;2022-12-20T16:43:53;19.23;;;9.57;;